Jfe Tokyo Bay — JD2012 — position and weather

sailwx.info

Track history (hours):
 
Tides and Currents Weather Stations Pressure Air Temp Water Temp Dewpoint Dewpoint Depression Visibility Wind Speed Wind Dir Waves Ship Positions

Jfe Tokyo Bay

Last reported at 2018-Jun-20 10:56 UTC. Time now 2018-Jun-20 18:49 UTC.
Position N 35°32' E 140°00'.

Length 70 m; draft 3.9 m.

Type: Cargo ship. MMSI: 431501791.

Date/timePositionNaut miles runAvg speedWind from/ knotsBaromVisibWave heightAir tempDewpointWater temp
2018-Jun-20 10:56N 35°32' E 140°00'410.1
2018-Jun-20 10:30N 35°30' E 139°56'510.3
2018-Jun-20 10:00N 35°27' E 139°50'510.6
2018-Jun-20 09:30N 35°25' E 139°45'5 9.8
2018-Jun-20 09:00N 35°24' E 139°39'0 0.9
2018-Jun-20 08:30N 35°23' E 139°39'0 0.0
2018-Jun-20 08:00N 35°23' E 139°39'0 0.0
2018-Jun-20 07:30N 35°23' E 139°39'0 0.0
2018-Jun-20 07:00N 35°23' E 139°39'0 0.0
2018-Jun-20 06:30N 35°23' E 139°39'0 0.0
2018-Jun-20 06:00N 35°23' E 139°39'0 0.0
2018-Jun-20 05:30N 35°23' E 139°39'0 0.0
2018-Jun-20 05:00N 35°23' E 139°39'0 0.0
2018-Jun-20 04:30N 35°23' E 139°39'0 0.0
2018-Jun-20 04:00N 35°23' E 139°39'0 0.0
2018-Jun-20 03:27N 35°23' E 139°39'0 0.0
2018-Jun-20 03:00N 35°23' E 139°39'0 0.0
2018-Jun-20 02:30N 35°23' E 139°39'0 0.0
2018-Jun-20 02:00N 35°23' E 139°39'0 0.0
2018-Jun-20 01:30N 35°23' E 139°39'0 0.0
2018-Jun-20 01:00N 35°23' E 139°39'0 0.0
2018-Jun-20 00:30N 35°23' E 139°39'0 0.0
2018-Jun-20 00:00N 35°23' E 139°39'0 0.0
2018-Jun-19 23:30N 35°23' E 139°39'0 0.0
2018-Jun-19 23:00N 35°23' E 139°39'4 7.0
2018-Jun-19 22:30N 35°24' E 139°43'5 9.9
2018-Jun-19 22:00N 35°27' E 139°47'5 9.9
2018-Jun-19 21:30N 35°30' E 139°52'7 0.6
2018-Jun-19 09:48N 35°32' E 140°00'310.7
2018-Jun-19 09:30N 35°30' E 139°57'510.8
2018-Jun-19 09:00N 35°28' E 139°51'510.8
2018-Jun-19 08:30N 35°25' E 139°45'510.2
2018-Jun-19 08:00N 35°24' E 139°39'1 1.6
2018-Jun-19 07:29N 35°23' E 139°39'0 0.0
2018-Jun-19 06:59N 35°23' E 139°39'0 0.0
2018-Jun-19 06:29N 35°23' E 139°39'0 0.0
2018-Jun-19 05:59N 35°23' E 139°39'0 0.0
2018-Jun-19 05:29N 35°23' E 139°39'0 0.0
2018-Jun-19 04:59N 35°23' E 139°39'0 0.0
2018-Jun-19 04:29N 35°23' E 139°39'0 0.0
2018-Jun-19 03:59N 35°23' E 139°39'0 0.0
2018-Jun-19 03:29N 35°23' E 139°39'0 0.0
2018-Jun-19 02:59N 35°23' E 139°39'0 0.0
2018-Jun-19 02:29N 35°23' E 139°39'0 0.0
2018-Jun-19 01:59N 35°23' E 139°39'0 0.0
2018-Jun-19 01:29N 35°23' E 139°39'0 0.0
2018-Jun-19 00:59N 35°23' E 139°39'0 0.0
2018-Jun-19 00:26N 35°23' E 139°39'0 0.0
2018-Jun-18 23:59N 35°23' E 139°39'0 0.0
2018-Jun-18 23:29N 35°23' E 139°39'0 0.0
2018-Jun-18 23:00N 35°23' E 139°39'3 5.5
2018-Jun-18 22:31N 35°23' E 139°42'510.4
2018-Jun-18 22:01N 35°27' E 139°47'510.4
2018-Jun-18 21:31N 35°30' E 139°52'7 0.7
2018-Jun-18 11:23N 35°32' E 139°60'4 9.9
2018-Jun-18 11:00N 35°30' E 139°56'5 9.8
2018-Jun-18 10:30N 35°28' E 139°51'510.2
2018-Jun-18 10:00N 35°25' E 139°45'510.0
2018-Jun-18 09:30N 35°24' E 139°39'1 1.5
2018-Jun-18 08:59N 35°23' E 139°39'0 0.0
2018-Jun-18 08:29N 35°23' E 139°39'0 0.0
2018-Jun-18 07:59N 35°23' E 139°39'0 0.0
2018-Jun-18 07:29N 35°23' E 139°39'0 0.0
2018-Jun-18 06:59N 35°23' E 139°39'0 0.0
2018-Jun-18 06:20N 35°23' E 139°39'0 0.0
2018-Jun-18 05:59N 35°23' E 139°39'0 0.0
2018-Jun-18 05:29N 35°23' E 139°39'0 0.0
2018-Jun-18 04:59N 35°23' E 139°39'0 0.0
2018-Jun-18 04:29N 35°23' E 139°39'0 0.0
2018-Jun-18 03:59N 35°23' E 139°39'0 0.0
2018-Jun-18 03:28N 35°23' E 139°39'0 0.0
2018-Jun-18 02:58N 35°23' E 139°39'0 0.0
2018-Jun-18 02:28N 35°23' E 139°39'0 0.0
2018-Jun-18 01:58N 35°23' E 139°39'0 0.0
2018-Jun-18 01:28N 35°23' E 139°39'0 0.0
2018-Jun-18 00:58N 35°23' E 139°39'0 0.0
2018-Jun-18 00:28N 35°23' E 139°39'0 0.0
2018-Jun-17 23:58N 35°23' E 139°39'0 0.0
2018-Jun-17 23:28N 35°23' E 139°39'0 0.0
2018-Jun-17 23:00N 35°23' E 139°39'3 7.0
2018-Jun-17 22:30N 35°24' E 139°43'510.1
2018-Jun-17 22:00N 35°27' E 139°48'510.0
2018-Jun-17 21:30N 35°30' E 139°53'5 0.2
2018-Jun-16 22:13N 35°32' E 139°59'2 9.8
2018-Jun-16 22:00N 35°30' E 139°57'5 9.7
2018-Jun-16 21:30N 35°28' E 139°51'510.0
2018-Jun-16 21:00N 35°26' E 139°46'5 9.6
2018-Jun-16 20:30N 35°23' E 139°41'2 3.9
2018-Jun-16 20:00N 35°23' E 139°39'0 0.0
2018-Jun-16 19:30N 35°23' E 139°39'0 0.0
2018-Jun-16 19:00N 35°23' E 139°39'0 0.0
2018-Jun-16 18:30N 35°23' E 139°39'0 0.0
2018-Jun-16 18:00N 35°23' E 139°39'0 0.0
2018-Jun-16 17:30N 35°23' E 139°39'0 0.0
2018-Jun-16 17:00N 35°23' E 139°39'0 0.0
2018-Jun-16 16:30N 35°23' E 139°39'0 0.0
2018-Jun-16 16:00N 35°23' E 139°39'0 0.0
2018-Jun-16 15:30N 35°23' E 139°39'0 0.0
2018-Jun-16 15:00N 35°23' E 139°39'0 0.0
2018-Jun-16 14:30N 35°23' E 139°39'0 0.0
2018-Jun-16 14:00N 35°23' E 139°39'0 0.0
2018-Jun-16 13:30N 35°23' E 139°39'0 0.0
2018-Jun-16 13:00N 35°23' E 139°39'0 0.0
2018-Jun-16 12:30N 35°23' E 139°39'0 0.0
2018-Jun-16 12:00N 35°23' E 139°39'0 0.0
2018-Jun-16 11:30N 35°23' E 139°39'0 0.0
2018-Jun-16 11:00N 35°23' E 139°39'0 0.0
2018-Jun-16 10:30N 35°23' E 139°39'0 0.0
2018-Jun-16 10:00N 35°23' E 139°39'0 0.0
2018-Jun-16 09:30N 35°23' E 139°39'0 0.0
2018-Jun-16 09:00N 35°23' E 139°39'0 0.0
2018-Jun-16 08:30N 35°23' E 139°39'0 0.0
2018-Jun-16 08:00N 35°23' E 139°39'0 0.0
2018-Jun-16 07:30N 35°23' E 139°39'0 0.0
2018-Jun-16 07:00N 35°23' E 139°39'0 0.0
2018-Jun-16 06:30N 35°23' E 139°39'0 0.0
2018-Jun-16 06:00N 35°23' E 139°39'0 0.0
2018-Jun-16 05:30N 35°23' E 139°39'0 0.0
2018-Jun-16 04:57N 35°23' E 139°39'0 0.0
2018-Jun-16 04:30N 35°23' E 139°39'0 0.0
2018-Jun-16 04:00N 35°23' E 139°39'0 0.0
2018-Jun-16 03:30N 35°23' E 139°39'0 0.0
2018-Jun-16 03:00N 35°23' E 139°39'0 0.0
2018-Jun-16 02:30N 35°23' E 139°39'0 0.0
2018-Jun-16 02:00N 35°23' E 139°39'0 0.0
2018-Jun-16 01:29N 35°23' E 139°39'0 0.0
2018-Jun-16 00:59N 35°23' E 139°39'0 0.0
2018-Jun-16 00:29N 35°23' E 139°39'0 0.0
2018-Jun-15 23:59N 35°23' E 139°39'0 0.0
2018-Jun-15 23:29N 35°23' E 139°39'0 0.0
2018-Jun-15 22:59N 35°23' E 139°39'0 0.0
2018-Jun-15 22:29N 35°23' E 139°39'0 0.0
2018-Jun-15 21:59N 35°23' E 139°39'0 0.0
2018-Jun-15 21:29N 35°23' E 139°39'0 0.0
2018-Jun-15 20:59N 35°23' E 139°39'0 0.0
2018-Jun-15 20:29N 35°23' E 139°39'0 0.0
2018-Jun-15 19:59N 35°23' E 139°39'0 0.0
2018-Jun-15 19:29N 35°23' E 139°39'0 0.0
2018-Jun-15 18:59N 35°23' E 139°39'0 0.0
2018-Jun-15 18:29N 35°23' E 139°39'0 0.0
2018-Jun-15 17:59N 35°23' E 139°39'0 0.0
2018-Jun-15 17:29N 35°23' E 139°39'0 0.0
2018-Jun-15 16:59N 35°23' E 139°39'0 0.0
2018-Jun-15 16:29N 35°23' E 139°39'0 0.0
2018-Jun-15 15:59N 35°23' E 139°39'0 0.0
2018-Jun-15 15:29N 35°23' E 139°39'0 0.0
2018-Jun-15 14:59N 35°23' E 139°39'0 0.0
2018-Jun-15 14:29N 35°23' E 139°39'0 0.0
2018-Jun-15 13:59N 35°23' E 139°39'0 0.0
2018-Jun-15 13:29N 35°23' E 139°39'0 0.0
2018-Jun-15 12:59N 35°23' E 139°39'0 0.0
2018-Jun-15 12:29N 35°23' E 139°39'0 0.0
2018-Jun-15 11:59N 35°23' E 139°39'0 0.0
2018-Jun-15 11:29N 35°23' E 139°39'0 0.0
2018-Jun-15 10:59N 35°23' E 139°39'0 0.0
2018-Jun-15 10:29N 35°23' E 139°39'0 0.0
2018-Jun-15 09:59N 35°23' E 139°39'0 0.0
2018-Jun-15 09:29N 35°23' E 139°39'0 0.0
2018-Jun-15 08:59N 35°23' E 139°39'0 0.0
2018-Jun-15 08:29N 35°23' E 139°39'0 0.0
2018-Jun-15 07:59N 35°23' E 139°39'0 0.0
2018-Jun-15 07:29N 35°23' E 139°39'0 0.0
2018-Jun-15 06:59N 35°23' E 139°39'0 0.0
2018-Jun-15 06:23N 35°23' E 139°39'0 0.0
2018-Jun-15 05:59N 35°23' E 139°39'0 0.0
2018-Jun-15 05:29N 35°23' E 139°39'0 0.0
2018-Jun-15 04:59N 35°23' E 139°39'0 0.0
2018-Jun-15 04:29N 35°23' E 139°39'0 0.0
2018-Jun-15 03:59N 35°23' E 139°39'0 0.0
2018-Jun-15 03:29N 35°23' E 139°39'0 0.0
2018-Jun-15 02:59N 35°23' E 139°39'0 0.0
2018-Jun-15 02:29N 35°23' E 139°39'0 0.0
2018-Jun-15 01:59N 35°23' E 139°39'0 0.0
2018-Jun-15 01:26N 35°23' E 139°39'0 0.0
2018-Jun-15 00:59N 35°23' E 139°39'0 0.0
2018-Jun-15 00:29N 35°23' E 139°39'0 0.0
2018-Jun-14 23:59N 35°23' E 139°39'0 0.0
2018-Jun-14 23:26N 35°23' E 139°39'0 0.0
2018-Jun-14 22:58N 35°23' E 139°39'2 5.2
2018-Jun-14 22:30N 35°23' E 139°41'510.6
2018-Jun-14 22:00N 35°27' E 139°47'510.7
2018-Jun-14 21:30N 35°30' E 139°52'6 0.6
2018-Jun-14 10:47N 35°32' E 139°59'3 9.6
2018-Jun-14 10:30N 35°30' E 139°56'5 9.9
2018-Jun-14 10:00N 35°28' E 139°51'510.0
2018-Jun-14 09:30N 35°25' E 139°46'5 9.5
2018-Jun-14 09:00N 35°23' E 139°40'1 2.6
2018-Jun-14 08:30N 35°23' E 139°39'0 0.0
2018-Jun-14 08:00N 35°23' E 139°39'0 0.0
2018-Jun-14 07:30N 35°23' E 139°39'0 0.0
2018-Jun-14 07:00N 35°23' E 139°39'0 0.0
2018-Jun-14 06:30N 35°23' E 139°39'0 0.0
2018-Jun-14 06:00N 35°23' E 139°39'0 0.0
2018-Jun-14 05:30N 35°23' E 139°39'0 0.0
2018-Jun-14 05:00N 35°23' E 139°39'0 0.0
2018-Jun-14 04:30N 35°23' E 139°39'0 0.0
2018-Jun-14 04:00N 35°23' E 139°39'0 0.0
2018-Jun-14 03:30N 35°23' E 139°39'0 0.0
2018-Jun-14 03:00N 35°23' E 139°39'0 0.0
2018-Jun-14 02:30N 35°23' E 139°39'0 0.0
2018-Jun-14 02:00N 35°23' E 139°39'0 0.0
2018-Jun-14 01:30N 35°23' E 139°39'0 0.0
2018-Jun-14 00:57N 35°23' E 139°39'0 0.0
2018-Jun-14 00:30N 35°23' E 139°39'0 0.0
2018-Jun-14 00:00N 35°23' E 139°39'0 0.0
2018-Jun-13 23:30N 35°23' E 139°39'0 0.0
2018-Jun-13 23:00N 35°23' E 139°39'2 4.0
2018-Jun-13 22:31N 35°23' E 139°41'511.0
2018-Jun-13 22:00N 35°27' E 139°47'510.9
2018-Jun-13 21:30N 35°30' E 139°52'6 0.6
2018-Jun-13 09:50N 35°32' E 139°59'410.5
2018-Jun-13 09:29N 35°30' E 139°56'510.7
2018-Jun-13 09:00N 35°27' E 139°50'510.8
2018-Jun-13 08:30N 35°25' E 139°44'5 9.7
2018-Jun-13 08:01N 35°23' E 139°39'0 0.2
2018-Jun-13 07:30N 35°23' E 139°39'0 0.0
2018-Jun-13 07:00N 35°23' E 139°39'0 0.0
2018-Jun-13 06:30N 35°23' E 139°39'0 0.0
2018-Jun-13 06:00N 35°23' E 139°39'0 0.0
2018-Jun-13 05:30N 35°23' E 139°39'0 0.0
2018-Jun-13 05:00N 35°23' E 139°39'0 0.0
2018-Jun-13 04:30N 35°23' E 139°39'0 0.0
2018-Jun-13 04:00N 35°23' E 139°39'0 0.0
2018-Jun-13 03:30N 35°23' E 139°39'0 0.0
2018-Jun-13 02:57N 35°23' E 139°39'0 0.0
2018-Jun-13 02:30N 35°23' E 139°39'0 0.0
2018-Jun-13 01:57N 35°23' E 139°39'0 0.0
2018-Jun-13 01:27N 35°23' E 139°39'0 0.0
2018-Jun-13 01:00N 35°23' E 139°39'0 0.0
2018-Jun-13 00:30N 35°23' E 139°39'0 0.0
2018-Jun-13 00:00N 35°23' E 139°39'0 0.0
2018-Jun-12 23:30N 35°23' E 139°39'0 0.0
2018-Jun-12 23:00N 35°23' E 139°39'2 4.0
2018-Jun-12 22:30N 35°23' E 139°41'510.9
2018-Jun-12 22:00N 35°26' E 139°47'510.7
2018-Jun-12 21:31N 35°30' E 139°52'7 0.7
2018-Jun-12 10:36N 35°32' E 140°00'1 9.8
2018-Jun-12 10:30N 35°32' E 139°59'5 9.6
2018-Jun-12 10:00N 35°29' E 139°54'5 9.6
2018-Jun-12 09:30N 35°27' E 139°49'5 9.5
2018-Jun-12 09:00N 35°24' E 139°44'5 9.4
2018-Jun-12 08:30N 35°23' E 139°39'0 0.2
2018-Jun-12 07:58N 35°23' E 139°39'0 0.0
2018-Jun-12 07:28N 35°23' E 139°39'0 0.0
2018-Jun-12 06:58N 35°23' E 139°39'0 0.0
2018-Jun-12 06:28N 35°23' E 139°39'0 0.0
2018-Jun-12 05:58N 35°23' E 139°39'0 0.0
2018-Jun-12 05:28N 35°23' E 139°39'0 0.0
2018-Jun-12 04:58N 35°23' E 139°39'0 0.0
2018-Jun-12 04:28N 35°23' E 139°39'0 0.0
2018-Jun-12 03:58N 35°23' E 139°39'0 0.0
2018-Jun-12 03:25N 35°23' E 139°39'0 0.0
2018-Jun-12 02:58N 35°23' E 139°39'0 0.0
2018-Jun-12 02:28N 35°23' E 139°39'0 0.0
2018-Jun-12 01:58N 35°23' E 139°39'0 0.0
2018-Jun-12 01:28N 35°23' E 139°39'0 0.0
2018-Jun-12 00:58N 35°23' E 139°39'0 0.0
2018-Jun-12 00:28N 35°23' E 139°39'0 0.0
2018-Jun-11 23:58N 35°23' E 139°39'0 0.0
2018-Jun-11 23:25N 35°23' E 139°39'0 0.0
2018-Jun-11 22:58N 35°23' E 139°39'2 5.0
2018-Jun-11 22:30N 35°23' E 139°41'510.8
2018-Jun-11 22:00N 35°27' E 139°47'510.7
2018-Jun-11 21:30N 35°30' E 139°52'  
Track history (hours):
 
Tides and Currents Weather Stations Pressure Air Temp Water Temp Dewpoint Dewpoint Depression Visibility Wind Speed Wind Dir Waves Ship Positions

Jfe Tokyo Bay

Last reported at 2018-Jun-20 10:56 UTC. Time now 2018-Jun-20 18:49 UTC.
Position N 35°32' E 140°00'.

Length 70 m; draft 3.9 m.

Type: Cargo ship. MMSI: 431501791.

Date/timePositionNaut miles runAvg speedWind from/ knotsBaromVisibWave heightAir tempDewpointWater temp
2018-Jun-20 10:56N 35°32' E 140°00'410.1
2018-Jun-20 10:30N 35°30' E 139°56'510.3
2018-Jun-20 10:00N 35°27' E 139°50'510.6
2018-Jun-20 09:30N 35°25' E 139°45'5 9.8
2018-Jun-20 09:00N 35°24' E 139°39'0 0.9
2018-Jun-20 08:30N 35°23' E 139°39'0 0.0
2018-Jun-20 08:00N 35°23' E 139°39'0 0.0
2018-Jun-20 07:30N 35°23' E 139°39'0 0.0
2018-Jun-20 07:00N 35°23' E 139°39'0 0.0
2018-Jun-20 06:30N 35°23' E 139°39'0 0.0
2018-Jun-20 06:00N 35°23' E 139°39'0 0.0
2018-Jun-20 05:30N 35°23' E 139°39'0 0.0
2018-Jun-20 05:00N 35°23' E 139°39'0 0.0
2018-Jun-20 04:30N 35°23' E 139°39'0 0.0
2018-Jun-20 04:00N 35°23' E 139°39'0 0.0
2018-Jun-20 03:27N 35°23' E 139°39'0 0.0
2018-Jun-20 03:00N 35°23' E 139°39'0 0.0
2018-Jun-20 02:30N 35°23' E 139°39'0 0.0
2018-Jun-20 02:00N 35°23' E 139°39'0 0.0
2018-Jun-20 01:30N 35°23' E 139°39'0 0.0
2018-Jun-20 01:00N 35°23' E 139°39'0 0.0
2018-Jun-20 00:30N 35°23' E 139°39'0 0.0
2018-Jun-20 00:00N 35°23' E 139°39'0 0.0
2018-Jun-19 23:30N 35°23' E 139°39'0 0.0
2018-Jun-19 23:00N 35°23' E 139°39'4 7.0
2018-Jun-19 22:30N 35°24' E 139°43'5 9.9
2018-Jun-19 22:00N 35°27' E 139°47'5 9.9
2018-Jun-19 21:30N 35°30' E 139°52'7 0.6
2018-Jun-19 09:48N 35°32' E 140°00'310.7
2018-Jun-19 09:30N 35°30' E 139°57'510.8
2018-Jun-19 09:00N 35°28' E 139°51'510.8
2018-Jun-19 08:30N 35°25' E 139°45'510.2
2018-Jun-19 08:00N 35°24' E 139°39'1 1.6
2018-Jun-19 07:29N 35°23' E 139°39'0 0.0
2018-Jun-19 06:59N 35°23' E 139°39'0 0.0
2018-Jun-19 06:29N 35°23' E 139°39'0 0.0
2018-Jun-19 05:59N 35°23' E 139°39'0 0.0
2018-Jun-19 05:29N 35°23' E 139°39'0 0.0
2018-Jun-19 04:59N 35°23' E 139°39'0 0.0
2018-Jun-19 04:29N 35°23' E 139°39'0 0.0
2018-Jun-19 03:59N 35°23' E 139°39'0 0.0
2018-Jun-19 03:29N 35°23' E 139°39'0 0.0
2018-Jun-19 02:59N 35°23' E 139°39'0 0.0
2018-Jun-19 02:29N 35°23' E 139°39'0 0.0
2018-Jun-19 01:59N 35°23' E 139°39'0 0.0
2018-Jun-19 01:29N 35°23' E 139°39'0 0.0
2018-Jun-19 00:59N 35°23' E 139°39'0 0.0
2018-Jun-19 00:26N 35°23' E 139°39'0 0.0
2018-Jun-18 23:59N 35°23' E 139°39'0 0.0
2018-Jun-18 23:29N 35°23' E 139°39'0 0.0
2018-Jun-18 23:00N 35°23' E 139°39'3 5.5
2018-Jun-18 22:31N 35°23' E 139°42'510.4
2018-Jun-18 22:01N 35°27' E 139°47'510.4
2018-Jun-18 21:31N 35°30' E 139°52'7 0.7
2018-Jun-18 11:23N 35°32' E 139°60'4 9.9
2018-Jun-18 11:00N 35°30' E 139°56'5 9.8
2018-Jun-18 10:30N 35°28' E 139°51'510.2
2018-Jun-18 10:00N 35°25' E 139°45'510.0
2018-Jun-18 09:30N 35°24' E 139°39'1 1.5
2018-Jun-18 08:59N 35°23' E 139°39'0 0.0
2018-Jun-18 08:29N 35°23' E 139°39'0 0.0
2018-Jun-18 07:59N 35°23' E 139°39'0 0.0
2018-Jun-18 07:29N 35°23' E 139°39'0 0.0
2018-Jun-18 06:59N 35°23' E 139°39'0 0.0
2018-Jun-18 06:20N 35°23' E 139°39'0 0.0
2018-Jun-18 05:59N 35°23' E 139°39'0 0.0
2018-Jun-18 05:29N 35°23' E 139°39'0 0.0
2018-Jun-18 04:59N 35°23' E 139°39'0 0.0
2018-Jun-18 04:29N 35°23' E 139°39'0 0.0
2018-Jun-18 03:59N 35°23' E 139°39'0 0.0
2018-Jun-18 03:28N 35°23' E 139°39'0 0.0
2018-Jun-18 02:58N 35°23' E 139°39'0 0.0
2018-Jun-18 02:28N 35°23' E 139°39'0 0.0
2018-Jun-18 01:58N 35°23' E 139°39'0 0.0
2018-Jun-18 01:28N 35°23' E 139°39'0 0.0
2018-Jun-18 00:58N 35°23' E 139°39'0 0.0
2018-Jun-18 00:28N 35°23' E 139°39'0 0.0
2018-Jun-17 23:58N 35°23' E 139°39'0 0.0
2018-Jun-17 23:28N 35°23' E 139°39'0 0.0
2018-Jun-17 23:00N 35°23' E 139°39'3 7.0
2018-Jun-17 22:30N 35°24' E 139°43'510.1
2018-Jun-17 22:00N 35°27' E 139°48'510.0
2018-Jun-17 21:30N 35°30' E 139°53'5 0.2
2018-Jun-16 22:13N 35°32' E 139°59'2 9.8
2018-Jun-16 22:00N 35°30' E 139°57'5 9.7
2018-Jun-16 21:30N 35°28' E 139°51'510.0
2018-Jun-16 21:00N 35°26' E 139°46'5 9.6
2018-Jun-16 20:30N 35°23' E 139°41'2 3.9
2018-Jun-16 20:00N 35°23' E 139°39'0 0.0
2018-Jun-16 19:30N 35°23' E 139°39'0 0.0
2018-Jun-16 19:00N 35°23' E 139°39'0 0.0
2018-Jun-16 18:30N 35°23' E 139°39'0 0.0
2018-Jun-16 18:00N 35°23' E 139°39'0 0.0
2018-Jun-16 17:30N 35°23' E 139°39'0 0.0
2018-Jun-16 17:00N 35°23' E 139°39'0 0.0
2018-Jun-16 16:30N 35°23' E 139°39'0 0.0
2018-Jun-16 16:00N 35°23' E 139°39'0 0.0
2018-Jun-16 15:30N 35°23' E 139°39'0 0.0
2018-Jun-16 15:00N 35°23' E 139°39'0 0.0
2018-Jun-16 14:30N 35°23' E 139°39'0 0.0
2018-Jun-16 14:00N 35°23' E 139°39'0 0.0
2018-Jun-16 13:30N 35°23' E 139°39'0 0.0
2018-Jun-16 13:00N 35°23' E 139°39'0 0.0
2018-Jun-16 12:30N 35°23' E 139°39'0 0.0
2018-Jun-16 12:00N 35°23' E 139°39'0 0.0
2018-Jun-16 11:30N 35°23' E 139°39'0 0.0
2018-Jun-16 11:00N 35°23' E 139°39'0 0.0
2018-Jun-16 10:30N 35°23' E 139°39'0 0.0
2018-Jun-16 10:00N 35°23' E 139°39'0 0.0
2018-Jun-16 09:30N 35°23' E 139°39'0 0.0
2018-Jun-16 09:00N 35°23' E 139°39'0 0.0
2018-Jun-16 08:30N 35°23' E 139°39'0 0.0
2018-Jun-16 08:00N 35°23' E 139°39'0 0.0
2018-Jun-16 07:30N 35°23' E 139°39'0 0.0
2018-Jun-16 07:00N 35°23' E 139°39'0 0.0
2018-Jun-16 06:30N 35°23' E 139°39'0 0.0
2018-Jun-16 06:00N 35°23' E 139°39'0 0.0
2018-Jun-16 05:30N 35°23' E 139°39'0 0.0
2018-Jun-16 04:57N 35°23' E 139°39'0 0.0
2018-Jun-16 04:30N 35°23' E 139°39'0 0.0
2018-Jun-16 04:00N 35°23' E 139°39'0 0.0
2018-Jun-16 03:30N 35°23' E 139°39'0 0.0
2018-Jun-16 03:00N 35°23' E 139°39'0 0.0
2018-Jun-16 02:30N 35°23' E 139°39'0 0.0
2018-Jun-16 02:00N 35°23' E 139°39'0 0.0
2018-Jun-16 01:29N 35°23' E 139°39'0 0.0
2018-Jun-16 00:59N 35°23' E 139°39'0 0.0
2018-Jun-16 00:29N 35°23' E 139°39'0 0.0
2018-Jun-15 23:59N 35°23' E 139°39'0 0.0
2018-Jun-15 23:29N 35°23' E 139°39'0 0.0
2018-Jun-15 22:59N 35°23' E 139°39'0 0.0
2018-Jun-15 22:29N 35°23' E 139°39'0 0.0
2018-Jun-15 21:59N 35°23' E 139°39'0 0.0
2018-Jun-15 21:29N 35°23' E 139°39'0 0.0
2018-Jun-15 20:59N 35°23' E 139°39'0 0.0
2018-Jun-15 20:29N 35°23' E 139°39'0 0.0
2018-Jun-15 19:59N 35°23' E 139°39'0 0.0
2018-Jun-15 19:29N 35°23' E 139°39'0 0.0
2018-Jun-15 18:59N 35°23' E 139°39'0 0.0
2018-Jun-15 18:29N 35°23' E 139°39'0 0.0
2018-Jun-15 17:59N 35°23' E 139°39'0 0.0
2018-Jun-15 17:29N 35°23' E 139°39'0 0.0
2018-Jun-15 16:59N 35°23' E 139°39'0 0.0
2018-Jun-15 16:29N 35°23' E 139°39'0 0.0
2018-Jun-15 15:59N 35°23' E 139°39'0 0.0
2018-Jun-15 15:29N 35°23' E 139°39'0 0.0
2018-Jun-15 14:59N 35°23' E 139°39'0 0.0
2018-Jun-15 14:29N 35°23' E 139°39'0 0.0
2018-Jun-15 13:59N 35°23' E 139°39'0 0.0
2018-Jun-15 13:29N 35°23' E 139°39'0 0.0
2018-Jun-15 12:59N 35°23' E 139°39'0 0.0
2018-Jun-15 12:29N 35°23' E 139°39'0 0.0
2018-Jun-15 11:59N 35°23' E 139°39'0 0.0
2018-Jun-15 11:29N 35°23' E 139°39'0 0.0
2018-Jun-15 10:59N 35°23' E 139°39'0 0.0
2018-Jun-15 10:29N 35°23' E 139°39'0 0.0
2018-Jun-15 09:59N 35°23' E 139°39'0 0.0
2018-Jun-15 09:29N 35°23' E 139°39'0 0.0
2018-Jun-15 08:59N 35°23' E 139°39'0 0.0
2018-Jun-15 08:29N 35°23' E 139°39'0 0.0
2018-Jun-15 07:59N 35°23' E 139°39'0 0.0
2018-Jun-15 07:29N 35°23' E 139°39'0 0.0
2018-Jun-15 06:59N 35°23' E 139°39'0 0.0
2018-Jun-15 06:23N 35°23' E 139°39'0 0.0
2018-Jun-15 05:59N 35°23' E 139°39'0 0.0
2018-Jun-15 05:29N 35°23' E 139°39'0 0.0
2018-Jun-15 04:59N 35°23' E 139°39'0 0.0
2018-Jun-15 04:29N 35°23' E 139°39'0 0.0
2018-Jun-15 03:59N 35°23' E 139°39'0 0.0
2018-Jun-15 03:29N 35°23' E 139°39'0 0.0
2018-Jun-15 02:59N 35°23' E 139°39'0 0.0
2018-Jun-15 02:29N 35°23' E 139°39'0 0.0
2018-Jun-15 01:59N 35°23' E 139°39'0 0.0
2018-Jun-15 01:26N 35°23' E 139°39'0 0.0
2018-Jun-15 00:59N 35°23' E 139°39'0 0.0
2018-Jun-15 00:29N 35°23' E 139°39'0 0.0
2018-Jun-14 23:59N 35°23' E 139°39'0 0.0
2018-Jun-14 23:26N 35°23' E 139°39'0 0.0
2018-Jun-14 22:58N 35°23' E 139°39'2 5.2
2018-Jun-14 22:30N 35°23' E 139°41'510.6
2018-Jun-14 22:00N 35°27' E 139°47'510.7
2018-Jun-14 21:30N 35°30' E 139°52'6 0.6
2018-Jun-14 10:47N 35°32' E 139°59'3 9.6
2018-Jun-14 10:30N 35°30' E 139°56'5 9.9
2018-Jun-14 10:00N 35°28' E 139°51'510.0
2018-Jun-14 09:30N 35°25' E 139°46'5 9.5
2018-Jun-14 09:00N 35°23' E 139°40'1 2.6
2018-Jun-14 08:30N 35°23' E 139°39'0 0.0
2018-Jun-14 08:00N 35°23' E 139°39'0 0.0
2018-Jun-14 07:30N 35°23' E 139°39'0 0.0
2018-Jun-14 07:00N 35°23' E 139°39'0 0.0
2018-Jun-14 06:30N 35°23' E 139°39'0 0.0
2018-Jun-14 06:00N 35°23' E 139°39'0 0.0
2018-Jun-14 05:30N 35°23' E 139°39'0 0.0
2018-Jun-14 05:00N 35°23' E 139°39'0 0.0
2018-Jun-14 04:30N 35°23' E 139°39'0 0.0
2018-Jun-14 04:00N 35°23' E 139°39'0 0.0
2018-Jun-14 03:30N 35°23' E 139°39'0 0.0
2018-Jun-14 03:00N 35°23' E 139°39'0 0.0
2018-Jun-14 02:30N 35°23' E 139°39'0 0.0
2018-Jun-14 02:00N 35°23' E 139°39'0 0.0
2018-Jun-14 01:30N 35°23' E 139°39'0 0.0
2018-Jun-14 00:57N 35°23' E 139°39'0 0.0
2018-Jun-14 00:30N 35°23' E 139°39'0 0.0
2018-Jun-14 00:00N 35°23' E 139°39'0 0.0
2018-Jun-13 23:30N 35°23' E 139°39'0 0.0
2018-Jun-13 23:00N 35°23' E 139°39'2 4.0
2018-Jun-13 22:31N 35°23' E 139°41'511.0
2018-Jun-13 22:00N 35°27' E 139°47'510.9
2018-Jun-13 21:30N 35°30' E 139°52'6 0.6
2018-Jun-13 09:50N 35°32' E 139°59'410.5
2018-Jun-13 09:29N 35°30' E 139°56'510.7
2018-Jun-13 09:00N 35°27' E 139°50'510.8
2018-Jun-13 08:30N 35°25' E 139°44'5 9.7
2018-Jun-13 08:01N 35°23' E 139°39'0 0.2
2018-Jun-13 07:30N 35°23' E 139°39'0 0.0
2018-Jun-13 07:00N 35°23' E 139°39'0 0.0
2018-Jun-13 06:30N 35°23' E 139°39'0 0.0
2018-Jun-13 06:00N 35°23' E 139°39'0 0.0
2018-Jun-13 05:30N 35°23' E 139°39'0 0.0
2018-Jun-13 05:00N 35°23' E 139°39'0 0.0
2018-Jun-13 04:30N 35°23' E 139°39'0 0.0
2018-Jun-13 04:00N 35°23' E 139°39'0 0.0
2018-Jun-13 03:30N 35°23' E 139°39'0 0.0
2018-Jun-13 02:57N 35°23' E 139°39'0 0.0
2018-Jun-13 02:30N 35°23' E 139°39'0 0.0
2018-Jun-13 01:57N 35°23' E 139°39'0 0.0
2018-Jun-13 01:27N 35°23' E 139°39'0 0.0
2018-Jun-13 01:00N 35°23' E 139°39'0 0.0
2018-Jun-13 00:30N 35°23' E 139°39'0 0.0
2018-Jun-13 00:00N 35°23' E 139°39'0 0.0
2018-Jun-12 23:30N 35°23' E 139°39'0 0.0
2018-Jun-12 23:00N 35°23' E 139°39'2 4.0
2018-Jun-12 22:30N 35°23' E 139°41'510.9
2018-Jun-12 22:00N 35°26' E 139°47'510.7
2018-Jun-12 21:31N 35°30' E 139°52'7 0.7
2018-Jun-12 10:36N 35°32' E 140°00'1 9.8
2018-Jun-12 10:30N 35°32' E 139°59'5 9.6
2018-Jun-12 10:00N 35°29' E 139°54'5 9.6
2018-Jun-12 09:30N 35°27' E 139°49'5 9.5
2018-Jun-12 09:00N 35°24' E 139°44'5 9.4
2018-Jun-12 08:30N 35°23' E 139°39'0 0.2
2018-Jun-12 07:58N 35°23' E 139°39'0 0.0
2018-Jun-12 07:28N 35°23' E 139°39'0 0.0
2018-Jun-12 06:58N 35°23' E 139°39'0 0.0
2018-Jun-12 06:28N 35°23' E 139°39'0 0.0
2018-Jun-12 05:58N 35°23' E 139°39'0 0.0
2018-Jun-12 05:28N 35°23' E 139°39'0 0.0
2018-Jun-12 04:58N 35°23' E 139°39'0 0.0
2018-Jun-12 04:28N 35°23' E 139°39'0 0.0
2018-Jun-12 03:58N 35°23' E 139°39'0 0.0
2018-Jun-12 03:25N 35°23' E 139°39'0 0.0
2018-Jun-12 02:58N 35°23' E 139°39'0 0.0
2018-Jun-12 02:28N 35°23' E 139°39'0 0.0
2018-Jun-12 01:58N 35°23' E 139°39'0 0.0
2018-Jun-12 01:28N 35°23' E 139°39'0 0.0
2018-Jun-12 00:58N 35°23' E 139°39'0 0.0
2018-Jun-12 00:28N 35°23' E 139°39'0 0.0
2018-Jun-11 23:58N 35°23' E 139°39'0 0.0
2018-Jun-11 23:25N 35°23' E 139°39'0 0.0
2018-Jun-11 22:58N 35°23' E 139°39'2 5.0
2018-Jun-11 22:30N 35°23' E 139°41'510.8
2018-Jun-11 22:00N 35°27' E 139°47'510.7
2018-Jun-11 21:30N 35°30' E 139°52'  

Dump ship's entire track history